sensor_id;sensor_type;location;lat;lon;timestamp;pressure;altitude;pressure_sealevel;temperature;humidity
37694;BME280;23531;50.122;8.644;2022-12-18T00:00:23;101971.06;;;-3.77;69.82
37694;BME280;23531;50.122;8.644;2022-12-18T00:02:25;101961.66;;;-3.98;70.15
37694;BME280;23531;50.122;8.644;2022-12-18T00:04:27;101954.44;;;-3.95;69.83
37694;BME280;23531;50.122;8.644;2022-12-18T00:06:29;101961.81;;;-4.36;69.93
37694;BME280;23531;50.122;8.644;2022-12-18T00:08:30;101969.78;;;-4.91;70.77
37694;BME280;23531;50.122;8.644;2022-12-18T00:10:31;101965.91;;;-5.38;72.91
37694;BME280;23531;50.122;8.644;2022-12-18T00:12:33;101965.97;;;-5.40;74.29
37694;BME280;23531;50.122;8.644;2022-12-18T00:14:34;101967.16;;;-5.66;74.43
37694;BME280;23531;50.122;8.644;2022-12-18T00:16:36;101970.94;;;-5.34;75.46
37694;BME280;23531;50.122;8.644;2022-12-18T00:18:39;101971.34;;;-5.05;74.69
37694;BME280;23531;50.122;8.644;2022-12-18T00:20:41;101970.34;;;-5.40;74.12
37694;BME280;23531;50.122;8.644;2022-12-18T00:22:42;101968.16;;;-5.12;74.71
37694;BME280;23531;50.122;8.644;2022-12-18T00:24:43;101970.31;;;-4.84;74.21
37694;BME280;23531;50.122;8.644;2022-12-18T00:26:45;101965.19;;;-5.23;72.09
37694;BME280;23531;50.122;8.644;2022-12-18T00:28:46;101968.69;;;-5.23;74.12
37694;BME280;23531;50.122;8.644;2022-12-18T00:30:47;101960.22;;;-5.48;73.80
37694;BME280;23531;50.122;8.644;2022-12-18T00:32:51;101968.34;;;-5.73;74.46
37694;BME280;23531;50.122;8.644;2022-12-18T00:34:54;101965.03;;;-5.76;75.30
37694;BME280;23531;50.122;8.644;2022-12-18T00:36:55;101967.28;;;-5.88;75.20
37694;BME280;23531;50.122;8.644;2022-12-18T00:38:57;101963.69;;;-6.05;75.97
37694;BME280;23531;50.122;8.644;2022-12-18T00:40:58;101961.03;;;-5.85;77.50
37694;BME280;23531;50.122;8.644;2022-12-18T00:43:00;101957.31;;;-5.61;76.81
37694;BME280;23531;50.122;8.644;2022-12-18T00:45:00;101958.09;;;-5.40;75.06
37694;BME280;23531;50.122;8.644;2022-12-18T00:47:01;101957.91;;;-5.35;75.58
37694;BME280;23531;50.122;8.644;2022-12-18T00:49:03;101954.47;;;-5.19;74.70
37694;BME280;23531;50.122;8.644;2022-12-18T00:51:05;101969.25;;;-5.54;74.12
37694;BME280;23531;50.122;8.644;2022-12-18T00:53:10;101971.69;;;-5.88;74.49
37694;BME280;23531;50.122;8.644;2022-12-18T00:55:11;101972.50;;;-5.88;75.79
37694;BME280;23531;50.122;8.644;2022-12-18T00:57:13;101969.78;;;-5.66;75.36
37694;BME280;23531;50.122;8.644;2022-12-18T00:59:15;101975.34;;;-5.53;75.77
37694;BME280;23531;50.122;8.644;2022-12-18T01:01:16;101973.56;;;-5.15;75.61
37694;BME280;23531;50.122;8.644;2022-12-18T01:03:18;101964.22;;;-4.85;75.37
37694;BME280;23531;50.122;8.644;2022-12-18T01:05:19;101972.84;;;-4.64;73.66
37694;BME280;23531;50.122;8.644;2022-12-18T01:07:22;101977.31;;;-4.49;73.61
37694;BME280;23531;50.122;8.644;2022-12-18T01:09:23;101969.69;;;-4.53;71.99
37694;BME280;23531;50.122;8.644;2022-12-18T01:11:24;101972.78;;;-4.45;71.60
37694;BME280;23531;50.122;8.644;2022-12-18T01:13:26;101975.09;;;-4.56;70.26
37694;BME280;23531;50.122;8.644;2022-12-18T01:15:27;101969.53;;;-4.50;69.89
37694;BME280;23531;50.122;8.644;2022-12-18T01:17:28;101968.13;;;-4.57;70.12
37694;BME280;23531;50.122;8.644;2022-12-18T01:19:30;101971.47;;;-4.54;69.96
37694;BME280;23531;50.122;8.644;2022-12-18T01:21:31;101983.88;;;-4.57;68.54
37694;BME280;23531;50.122;8.644;2022-12-18T01:23:33;101987.50;;;-4.60;69.16
37694;BME280;23531;50.122;8.644;2022-12-18T01:25:35;101980.28;;;-4.55;69.57
37694;BME280;23531;50.122;8.644;2022-12-18T01:27:37;101985.28;;;-4.50;69.15
37694;BME280;23531;50.122;8.644;2022-12-18T01:29:38;101990.44;;;-4.66;68.09
37694;BME280;23531;50.122;8.644;2022-12-18T01:31:39;101997.22;;;-4.62;68.93
37694;BME280;23531;50.122;8.644;2022-12-18T01:33:40;101995.84;;;-4.69;68.04
37694;BME280;23531;50.122;8.644;2022-12-18T01:35:42;101998.94;;;-4.61;68.73
37694;BME280;23531;50.122;8.644;2022-12-18T01:37:44;101997.00;;;-4.57;69.35
37694;BME280;23531;50.122;8.644;2022-12-18T01:39:46;101999.25;;;-4.67;67.91
37694;BME280;23531;50.122;8.644;2022-12-18T01:41:48;102014.13;;;-4.67;68.69
37694;BME280;23531;50.122;8.644;2022-12-18T01:46:22;102016.25;;;-4.57;68.22
37694;BME280;23531;50.122;8.644;2022-12-18T01:48:23;102013.63;;;-4.57;68.54
37694;BME280;23531;50.122;8.644;2022-12-18T01:50:25;102013.41;;;-4.52;68.65
37694;BME280;23531;50.122;8.644;2022-12-18T01:52:29;102005.34;;;-4.66;68.15
37694;BME280;23531;50.122;8.644;2022-12-18T01:54:31;101992.63;;;-4.57;68.51
37694;BME280;23531;50.122;8.644;2022-12-18T01:56:34;101991.13;;;-4.62;68.21
37694;BME280;23531;50.122;8.644;2022-12-18T01:58:38;101998.03;;;-4.43;68.38
37694;BME280;23531;50.122;8.644;2022-12-18T02:00:41;101999.50;;;-4.54;68.33
37694;BME280;23531;50.122;8.644;2022-12-18T02:02:43;101995.78;;;-4.50;67.90
37694;BME280;23531;50.122;8.644;2022-12-18T02:04:45;102000.59;;;-4.41;67.77
37694;BME280;23531;50.122;8.644;2022-12-18T02:06:46;101997.31;;;-4.63;67.21
37694;BME280;23531;50.122;8.644;2022-12-18T02:08:57;102001.34;;;-4.56;67.66
37694;BME280;23531;50.122;8.644;2022-12-18T02:11:01;101997.47;;;-4.66;67.71
37694;BME280;23531;50.122;8.644;2022-12-18T02:13:09;101995.25;;;-4.57;67.26
37694;BME280;23531;50.122;8.644;2022-12-18T02:15:14;101980.72;;;-5.00;69.13
37694;BME280;23531;50.122;8.644;2022-12-18T02:17:18;101983.34;;;-4.64;69.62
37694;BME280;23531;50.122;8.644;2022-12-18T02:19:27;101983.28;;;-4.45;68.11
37694;BME280;23531;50.122;8.644;2022-12-18T02:21:36;101987.53;;;-4.43;68.90
37694;BME280;23531;50.122;8.644;2022-12-18T02:23:45;101989.56;;;-4.30;69.61
37694;BME280;23531;50.122;8.644;2022-12-18T02:26:00;101988.84;;;-4.34;67.43
37694;BME280;23531;50.122;8.644;2022-12-18T02:28:04;101980.59;;;-4.44;68.38
37694;BME280;23531;50.122;8.644;2022-12-18T02:30:07;101978.34;;;-4.34;67.67
37694;BME280;23531;50.122;8.644;2022-12-18T02:32:10;101967.06;;;-4.53;69.08
37694;BME280;23531;50.122;8.644;2022-12-18T02:34:12;101968.25;;;-4.42;68.83
37694;BME280;23531;50.122;8.644;2022-12-18T02:36:14;101969.88;;;-4.22;69.58
37694;BME280;23531;50.122;8.644;2022-12-18T02:38:16;101966.59;;;-4.27;68.37
37694;BME280;23531;50.122;8.644;2022-12-18T02:40:18;101961.03;;;-4.38;67.75
37694;BME280;23531;50.122;8.644;2022-12-18T02:42:21;101972.19;;;-4.33;68.99
37694;BME280;23531;50.122;8.644;2022-12-18T02:44:23;101976.50;;;-4.32;68.67
37694;BME280;23531;50.122;8.644;2022-12-18T02:46:31;101972.97;;;-4.31;68.72
37694;BME280;23531;50.122;8.644;2022-12-18T02:48:34;101982.03;;;-4.38;67.79
37694;BME280;23531;50.122;8.644;2022-12-18T02:50:38;101990.09;;;-4.41;68.39
37694;BME280;23531;50.122;8.644;2022-12-18T02:52:45;101973.06;;;-4.51;67.93
37694;BME280;23531;50.122;8.644;2022-12-18T02:54:56;101972.69;;;-4.61;68.76
37694;BME280;23531;50.122;8.644;2022-12-18T02:57:00;101965.50;;;-4.40;68.76
37694;BME280;23531;50.122;8.644;2022-12-18T02:59:06;101965.06;;;-4.31;68.62
37694;BME280;23531;50.122;8.644;2022-12-18T03:01:11;101970.75;;;-4.40;68.40
37694;BME280;23531;50.122;8.644;2022-12-18T03:03:16;101977.34;;;-4.31;68.48
37694;BME280;23531;50.122;8.644;2022-12-18T03:05:21;101968.06;;;-4.39;67.40
37694;BME280;23531;50.122;8.644;2022-12-18T03:07:26;101971.41;;;-4.52;67.28
37694;BME280;23531;50.122;8.644;2022-12-18T03:09:29;101987.28;;;-4.38;68.80
37694;BME280;23531;50.122;8.644;2022-12-18T03:11:33;101993.25;;;-4.17;67.86
37694;BME280;23531;50.122;8.644;2022-12-18T03:13:54;101993.19;;;-4.33;67.70
37694;BME280;23531;50.122;8.644;2022-12-18T03:16:00;101982.19;;;-4.58;66.37
37694;BME280;23531;50.122;8.644;2022-12-18T03:18:04;101983.69;;;-5.26;67.75
37694;BME280;23531;50.122;8.644;2022-12-18T03:20:10;101979.63;;;-4.96;68.47
37694;BME280;23531;50.122;8.644;2022-12-18T03:22:13;101979.63;;;-4.60;69.12
37694;BME280;23531;50.122;8.644;2022-12-18T03:24:14;101975.56;;;-4.48;68.69
37694;BME280;23531;50.122;8.644;2022-12-18T03:26:18;101975.31;;;-4.61;67.91
37694;BME280;23531;50.122;8.644;2022-12-18T03:28:21;101965.50;;;-4.57;67.85
37694;BME280;23531;50.122;8.644;2022-12-18T03:30:23;101969.09;;;-4.41;67.79
37694;BME280;23531;50.122;8.644;2022-12-18T03:32:28;101970.00;;;-4.25;68.47
37694;BME280;23531;50.122;8.644;2022-12-18T03:34:32;101967.53;;;-4.28;67.36
37694;BME280;23531;50.122;8.644;2022-12-18T03:36:34;101969.09;;;-4.24;67.13
37694;BME280;23531;50.122;8.644;2022-12-18T03:38:36;101967.84;;;-4.17;68.15
37694;BME280;23531;50.122;8.644;2022-12-18T03:40:41;101967.22;;;-4.05;67.92
37694;BME280;23531;50.122;8.644;2022-12-18T03:42:46;101978.28;;;-3.98;66.59
37694;BME280;23531;50.122;8.644;2022-12-18T03:44:50;101970.47;;;-3.99;66.71
37694;BME280;23531;50.122;8.644;2022-12-18T03:46:55;101973.78;;;-4.13;66.86
37694;BME280;23531;50.122;8.644;2022-12-18T03:49:01;101979.03;;;-4.13;67.30
37694;BME280;23531;50.122;8.644;2022-12-18T03:51:05;101964.50;;;-4.03;65.72
37694;BME280;23531;50.122;8.644;2022-12-18T03:53:11;101968.53;;;-4.13;65.13
37694;BME280;23531;50.122;8.644;2022-12-18T03:55:13;101972.47;;;-4.39;66.29
37694;BME280;23531;50.122;8.644;2022-12-18T03:57:15;101966.16;;;-4.52;66.42
37694;BME280;23531;50.122;8.644;2022-12-18T03:59:18;101968.63;;;-4.32;67.54
37694;BME280;23531;50.122;8.644;2022-12-18T04:01:20;101965.75;;;-4.27;66.31
37694;BME280;23531;50.122;8.644;2022-12-18T04:03:24;101967.75;;;-4.15;66.11
37694;BME280;23531;50.122;8.644;2022-12-18T04:05:27;101968.47;;;-4.29;65.96
37694;BME280;23531;50.122;8.644;2022-12-18T04:07:30;101970.63;;;-4.37;66.23
37694;BME280;23531;50.122;8.644;2022-12-18T04:09:33;101974.16;;;-4.38;67.01
37694;BME280;23531;50.122;8.644;2022-12-18T04:11:35;101985.00;;;-4.44;66.39
37694;BME280;23531;50.122;8.644;2022-12-18T04:13:37;101977.78;;;-4.58;66.50
37694;BME280;23531;50.122;8.644;2022-12-18T04:15:38;101976.00;;;-4.57;66.92
37694;BME280;23531;50.122;8.644;2022-12-18T04:17:42;101967.31;;;-5.13;66.69
37694;BME280;23531;50.122;8.644;2022-12-18T04:19:47;101965.97;;;-5.59;68.78
37694;BME280;23531;50.122;8.644;2022-12-18T04:21:50;101964.00;;;-5.54;69.71
37694;BME280;23531;50.122;8.644;2022-12-18T04:23:51;101973.28;;;-5.28;70.19
37694;BME280;23531;50.122;8.644;2022-12-18T04:25:52;101969.56;;;-4.86;69.17
37694;BME280;23531;50.122;8.644;2022-12-18T04:27:54;101975.50;;;-4.83;69.18
37694;BME280;23531;50.122;8.644;2022-12-18T04:29:55;101971.84;;;-4.97;68.18
37694;BME280;23531;50.122;8.644;2022-12-18T04:31:56;101972.78;;;-5.17;69.09
37694;BME280;23531;50.122;8.644;2022-12-18T04:33:58;101962.38;;;-4.83;68.49
37694;BME280;23531;50.122;8.644;2022-12-18T04:35:59;101969.97;;;-4.59;68.46
37694;BME280;23531;50.122;8.644;2022-12-18T04:38:02;101964.72;;;-4.59;67.31
37694;BME280;23531;50.122;8.644;2022-12-18T04:40:04;101974.56;;;-4.63;67.58
37694;BME280;23531;50.122;8.644;2022-12-18T04:42:05;101966.50;;;-4.60;67.52
37694;BME280;23531;50.122;8.644;2022-12-18T04:44:06;101958.03;;;-4.48;67.23
37694;BME280;23531;50.122;8.644;2022-12-18T04:46:08;101954.38;;;-4.62;67.07
37694;BME280;23531;50.122;8.644;2022-12-18T04:48:09;101955.94;;;-4.58;67.08
37694;BME280;23531;50.122;8.644;2022-12-18T04:50:11;101958.09;;;-4.66;67.14
37694;BME280;23531;50.122;8.644;2022-12-18T04:52:12;101956.53;;;-4.70;66.82
37694;BME280;23531;50.122;8.644;2022-12-18T04:54:15;101959.09;;;-4.69;67.07
37694;BME280;23531;50.122;8.644;2022-12-18T04:56:16;101962.34;;;-4.64;66.79
37694;BME280;23531;50.122;8.644;2022-12-18T04:58:18;101955.22;;;-4.62;67.19
37694;BME280;23531;50.122;8.644;2022-12-18T05:00:19;101957.56;;;-4.56;66.28
37694;BME280;23531;50.122;8.644;2022-12-18T05:02:19;101950.72;;;-4.41;67.60
37694;BME280;23531;50.122;8.644;2022-12-18T05:04:21;101950.19;;;-4.30;67.19
37694;BME280;23531;50.122;8.644;2022-12-18T05:06:22;101952.03;;;-4.32;66.19
37694;BME280;23531;50.122;8.644;2022-12-18T05:08:23;101955.94;;;-4.58;65.42
37694;BME280;23531;50.122;8.644;2022-12-18T05:10:26;101960.91;;;-4.52;65.84
37694;BME280;23531;50.122;8.644;2022-12-18T05:12:27;101965.06;;;-4.48;66.12
37694;BME280;23531;50.122;8.644;2022-12-18T05:14:29;101974.94;;;-4.53;65.21
37694;BME280;23531;50.122;8.644;2022-12-18T05:16:30;101980.63;;;-4.62;66.11
37694;BME280;23531;50.122;8.644;2022-12-18T05:18:31;101975.81;;;-4.53;65.79
37694;BME280;23531;50.122;8.644;2022-12-18T05:20:32;101979.22;;;-4.69;65.49
37694;BME280;23531;50.122;8.644;2022-12-18T05:22:34;101981.41;;;-4.60;65.18
37694;BME280;23531;50.122;8.644;2022-12-18T05:24:35;101987.56;;;-4.61;65.52
37694;BME280;23531;50.122;8.644;2022-12-18T05:26:38;101981.72;;;-4.66;66.50
37694;BME280;23531;50.122;8.644;2022-12-18T05:28:39;101981.13;;;-4.54;66.58
37694;BME280;23531;50.122;8.644;2022-12-18T05:30:40;101976.41;;;-4.65;65.72
37694;BME280;23531;50.122;8.644;2022-12-18T05:32:42;101978.44;;;-4.89;65.62
37694;BME280;23531;50.122;8.644;2022-12-18T05:34:43;101983.88;;;-4.74;66.08
37694;BME280;23531;50.122;8.644;2022-12-18T05:36:45;101980.63;;;-4.62;66.78
37694;BME280;23531;50.122;8.644;2022-12-18T05:38:46;101972.84;;;-4.47;65.94
37694;BME280;23531;50.122;8.644;2022-12-18T05:40:47;101975.75;;;-4.70;66.17
37694;BME280;23531;50.122;8.644;2022-12-18T05:42:51;101967.63;;;-4.83;65.33
37694;BME280;23531;50.122;8.644;2022-12-18T05:44:52;101963.84;;;-5.13;65.74
37694;BME280;23531;50.122;8.644;2022-12-18T05:46:53;101961.72;;;-5.24;66.52
37694;BME280;23531;50.122;8.644;2022-12-18T05:48:55;101960.09;;;-5.45;67.00
37694;BME280;23531;50.122;8.644;2022-12-18T05:50:56;101960.03;;;-5.43;67.07
37694;BME280;23531;50.122;8.644;2022-12-18T05:53:04;101964.38;;;-5.81;68.62
37694;BME280;23531;50.122;8.644;2022-12-18T05:55:06;101970.09;;;-5.73;68.67
37694;BME280;23531;50.122;8.644;2022-12-18T05:57:07;101969.59;;;-6.00;70.07
37694;BME280;23531;50.122;8.644;2022-12-18T05:59:10;101973.59;;;-5.92;70.28
37694;BME280;23531;50.122;8.644;2022-12-18T06:01:12;101969.53;;;-5.80;70.17
37694;BME280;23531;50.122;8.644;2022-12-18T06:03:13;101973.44;;;-5.70;70.13
37694;BME280;23531;50.122;8.644;2022-12-18T06:05:15;101969.94;;;-5.50;69.80
37694;BME280;23531;50.122;8.644;2022-12-18T06:07:16;101971.50;;;-5.27;70.18
37694;BME280;23531;50.122;8.644;2022-12-18T06:09:17;101976.09;;;-5.14;68.83
37694;BME280;23531;50.122;8.644;2022-12-18T06:11:19;101979.00;;;-5.01;68.29
37694;BME280;23531;50.122;8.644;2022-12-18T06:13:21;101975.72;;;-4.87;69.35
37694;BME280;23531;50.122;8.644;2022-12-18T06:15:24;101977.78;;;-4.75;68.82
37694;BME280;23531;50.122;8.644;2022-12-18T06:17:27;101985.34;;;-4.69;68.10
37694;BME280;23531;50.122;8.644;2022-12-18T06:19:28;101981.25;;;-4.57;68.14
37694;BME280;23531;50.122;8.644;2022-12-18T06:21:31;101980.41;;;-4.58;68.22
37694;BME280;23531;50.122;8.644;2022-12-18T06:23:32;101976.34;;;-4.46;66.83
37694;BME280;23531;50.122;8.644;2022-12-18T06:25:36;101993.75;;;-4.62;66.31
37694;BME280;23531;50.122;8.644;2022-12-18T06:27:37;101992.09;;;-4.46;66.71
37694;BME280;23531;50.122;8.644;2022-12-18T06:29:39;101990.78;;;-4.38;66.22
37694;BME280;23531;50.122;8.644;2022-12-18T06:31:42;101998.25;;;-4.47;67.20
37694;BME280;23531;50.122;8.644;2022-12-18T06:33:43;102002.59;;;-4.46;66.95
37694;BME280;23531;50.122;8.644;2022-12-18T06:35:44;101997.59;;;-4.33;65.83
37694;BME280;23531;50.122;8.644;2022-12-18T06:37:46;102007.38;;;-4.37;66.44
37694;BME280;23531;50.122;8.644;2022-12-18T06:39:47;102003.53;;;-4.30;65.09
37694;BME280;23531;50.122;8.644;2022-12-18T06:41:48;102010.25;;;-4.42;65.45
37694;BME280;23531;50.122;8.644;2022-12-18T06:43:50;102011.16;;;-4.43;66.12
37694;BME280;23531;50.122;8.644;2022-12-18T06:45:57;102009.94;;;-4.35;65.70
37694;BME280;23531;50.122;8.644;2022-12-18T06:47:59;102002.19;;;-4.56;65.20
37694;BME280;23531;50.122;8.644;2022-12-18T06:50:01;102007.34;;;-4.90;64.86
37694;BME280;23531;50.122;8.644;2022-12-18T06:52:02;102009.59;;;-5.58;66.25
37694;BME280;23531;50.122;8.644;2022-12-18T06:54:03;102020.00;;;-5.95;68.12
37694;BME280;23531;50.122;8.644;2022-12-18T06:56:06;102018.84;;;-6.30;69.45
37694;BME280;23531;50.122;8.644;2022-12-18T06:58:08;102023.38;;;-6.34;69.80
37694;BME280;23531;50.122;8.644;2022-12-18T07:00:10;102021.03;;;-6.19;71.08
37694;BME280;23531;50.122;8.644;2022-12-18T07:02:12;102022.16;;;-6.25;70.34
37694;BME280;23531;50.122;8.644;2022-12-18T07:04:15;102010.69;;;-6.22;70.47
37694;BME280;23531;50.122;8.644;2022-12-18T07:06:17;102026.66;;;-6.29;70.66
37694;BME280;23531;50.122;8.644;2022-12-18T07:08:19;102025.16;;;-6.34;70.94
37694;BME280;23531;50.122;8.644;2022-12-18T07:10:20;102027.16;;;-6.41;70.88
37694;BME280;23531;50.122;8.644;2022-12-18T07:12:21;102018.75;;;-6.49;71.21
37694;BME280;23531;50.122;8.644;2022-12-18T07:14:22;102033.66;;;-6.51;71.08
37694;BME280;23531;50.122;8.644;2022-12-18T07:16:24;102041.97;;;-6.19;71.68
37694;BME280;23531;50.122;8.644;2022-12-18T07:18:26;102033.88;;;-5.93;71.55
37694;BME280;23531;50.122;8.644;2022-12-18T07:20:28;102032.84;;;-5.70;70.84
37694;BME280;23531;50.122;8.644;2022-12-18T07:22:30;102041.09;;;-5.98;69.00
37694;BME280;23531;50.122;8.644;2022-12-18T07:24:32;102029.03;;;-6.02;70.11
37694;BME280;23531;50.122;8.644;2022-12-18T07:26:33;102029.44;;;-6.11;70.04
37694;BME280;23531;50.122;8.644;2022-12-18T07:28:35;102033.00;;;-6.34;70.29
37694;BME280;23531;50.122;8.644;2022-12-18T07:30:36;102022.72;;;-6.39;71.04
37694;BME280;23531;50.122;8.644;2022-12-18T07:32:38;102019.34;;;-6.42;70.85
37694;BME280;23531;50.122;8.644;2022-12-18T07:34:39;102021.84;;;-6.39;71.02
37694;BME280;23531;50.122;8.644;2022-12-18T07:36:42;102018.50;;;-6.43;71.14
37694;BME280;23531;50.122;8.644;2022-12-18T07:38:46;102028.34;;;-6.28;70.61
37694;BME280;23531;50.122;8.644;2022-12-18T07:40:47;102022.50;;;-6.12;70.76
37694;BME280;23531;50.122;8.644;2022-12-18T07:42:48;102029.59;;;-6.36;70.41
37694;BME280;23531;50.122;8.644;2022-12-18T07:44:50;102029.34;;;-6.52;70.25
37694;BME280;23531;50.122;8.644;2022-12-18T07:46:51;102039.28;;;-6.18;70.96
37694;BME280;23531;50.122;8.644;2022-12-18T07:48:52;102032.16;;;-6.14;70.78
37694;BME280;23531;50.122;8.644;2022-12-18T07:50:55;102028.00;;;-5.98;71.12
37694;BME280;23531;50.122;8.644;2022-12-18T07:53:00;102025.84;;;-6.31;69.96
37694;BME280;23531;50.122;8.644;2022-12-18T07:55:03;102027.47;;;-6.06;71.89
37694;BME280;23531;50.122;8.644;2022-12-18T07:57:05;102026.53;;;-6.26;70.22
37694;BME280;23531;50.122;8.644;2022-12-18T07:59:06;102028.22;;;-6.25;71.35
37694;BME280;23531;50.122;8.644;2022-12-18T08:01:08;102027.50;;;-6.28;71.79
37694;BME280;23531;50.122;8.644;2022-12-18T08:03:15;102033.34;;;-6.21;71.77
37694;BME280;23531;50.122;8.644;2022-12-18T08:05:16;102024.25;;;-5.93;71.46
37694;BME280;23531;50.122;8.644;2022-12-18T08:07:18;102027.56;;;-6.09;70.93
37694;BME280;23531;50.122;8.644;2022-12-18T08:09:20;102031.25;;;-6.13;72.10
37694;BME280;23531;50.122;8.644;2022-12-18T08:11:22;102039.50;;;-6.02;71.93
37694;BME280;23531;50.122;8.644;2022-12-18T08:13:24;102036.84;;;-6.01;71.77
37694;BME280;23531;50.122;8.644;2022-12-18T08:15:26;102028.56;;;-6.12;72.01
37694;BME280;23531;50.122;8.644;2022-12-18T08:17:27;102033.31;;;-6.00;72.48
37694;BME280;23531;50.122;8.644;2022-12-18T08:19:29;102030.69;;;-5.81;72.98
37694;BME280;23531;50.122;8.644;2022-12-18T08:21:30;102025.38;;;-5.98;72.50
37694;BME280;23531;50.122;8.644;2022-12-18T08:23:32;102034.44;;;-5.87;73.41
37694;BME280;23531;50.122;8.644;2022-12-18T08:25:34;102045.25;;;-5.54;73.79
37694;BME280;23531;50.122;8.644;2022-12-18T08:27:36;102034.72;;;-5.33;72.76
37694;BME280;23531;50.122;8.644;2022-12-18T08:29:37;102036.47;;;-5.73;72.75
37694;BME280;23531;50.122;8.644;2022-12-18T08:31:39;102040.44;;;-5.64;73.08
37694;BME280;23531;50.122;8.644;2022-12-18T08:33:40;102029.69;;;-5.58;73.46
37694;BME280;23531;50.122;8.644;2022-12-18T08:35:41;102019.81;;;-5.72;73.96
37694;BME280;23531;50.122;8.644;2022-12-18T08:37:43;102025.56;;;-5.64;74.97
37694;BME280;23531;50.122;8.644;2022-12-18T08:39:44;102026.06;;;-5.35;74.92
37694;BME280;23531;50.122;8.644;2022-12-18T08:41:47;102022.47;;;-5.14;74.18
37694;BME280;23531;50.122;8.644;2022-12-18T08:44:08;102018.06;;;-5.32;74.38
37694;BME280;23531;50.122;8.644;2022-12-18T08:46:30;102013.13;;;-5.20;74.53
37694;BME280;23531;50.122;8.644;2022-12-18T08:48:32;102011.53;;;-5.24;74.13
37694;BME280;23531;50.122;8.644;2022-12-18T08:50:34;102009.75;;;-5.04;74.96
37694;BME280;23531;50.122;8.644;2022-12-18T08:52:35;102002.75;;;-5.04;74.89
37694;BME280;23531;50.122;8.644;2022-12-18T08:54:36;101995.59;;;-5.00;74.64
37694;BME280;23531;50.122;8.644;2022-12-18T08:56:38;102001.69;;;-5.00;74.51
37694;BME280;23531;50.122;8.644;2022-12-18T08:58:40;101987.69;;;-4.82;74.60
37694;BME280;23531;50.122;8.644;2022-12-18T09:00:42;101992.94;;;-4.82;75.05
37694;BME280;23531;50.122;8.644;2022-12-18T09:02:43;101996.53;;;-4.65;75.26
37694;BME280;23531;50.122;8.644;2022-12-18T09:04:46;101995.88;;;-4.34;74.40
37694;BME280;23531;50.122;8.644;2022-12-18T09:06:47;102004.75;;;-4.54;73.69
37694;BME280;23531;50.122;8.644;2022-12-18T09:08:49;102009.06;;;-4.53;74.31
37694;BME280;23531;50.122;8.644;2022-12-18T09:10:50;102000.81;;;-4.63;73.92
37694;BME280;23531;50.122;8.644;2022-12-18T09:12:53;102011.44;;;-4.66;74.53
37694;BME280;23531;50.122;8.644;2022-12-18T09:14:57;102013.72;;;-4.41;75.75
37694;BME280;23531;50.122;8.644;2022-12-18T09:16:58;102019.94;;;-4.61;75.34
37694;BME280;23531;50.122;8.644;2022-12-18T09:19:00;102019.41;;;-4.50;74.94
37694;BME280;23531;50.122;8.644;2022-12-18T09:21:07;102015.06;;;-4.51;74.83
37694;BME280;23531;50.122;8.644;2022-12-18T09:23:08;102013.53;;;-4.55;73.85
37694;BME280;23531;50.122;8.644;2022-12-18T09:25:10;102018.56;;;-4.51;73.36
37694;BME280;23531;50.122;8.644;2022-12-18T09:27:11;102011.25;;;-4.44;72.58
37694;BME280;23531;50.122;8.644;2022-12-18T09:29:12;102009.69;;;-4.48;73.12
37694;BME280;23531;50.122;8.644;2022-12-18T09:31:16;102015.19;;;-4.35;73.69
37694;BME280;23531;50.122;8.644;2022-12-18T09:33:18;102017.38;;;-4.09;72.79
37694;BME280;23531;50.122;8.644;2022-12-18T09:35:19;102013.81;;;-4.08;71.92
37694;BME280;23531;50.122;8.644;2022-12-18T09:37:20;102017.59;;;-3.96;72.44
37694;BME280;23531;50.122;8.644;2022-12-18T09:39:22;102024.63;;;-3.97;72.41
37694;BME280;23531;50.122;8.644;2022-12-18T09:41:32;102015.91;;;-3.97;71.43
37694;BME280;23531;50.122;8.644;2022-12-18T09:43:36;102012.66;;;-3.85;72.16
37694;BME280;23531;50.122;8.644;2022-12-18T09:45:42;102018.50;;;-3.63;70.71
37694;BME280;23531;50.122;8.644;2022-12-18T09:47:46;102019.50;;;-3.66;69.91
37694;BME280;23531;50.122;8.644;2022-12-18T09:49:50;102021.13;;;-3.63;69.27
37694;BME280;23531;50.122;8.644;2022-12-18T09:51:54;102025.28;;;-3.59;70.19
37694;BME280;23531;50.122;8.644;2022-12-18T09:54:03;102031.16;;;-3.54;68.94
37694;BME280;23531;50.122;8.644;2022-12-18T09:56:05;102023.38;;;-3.73;68.29
37694;BME280;23531;50.122;8.644;2022-12-18T09:58:13;102018.72;;;-3.68;67.83
37694;BME280;23531;50.122;8.644;2022-12-18T10:00:16;102026.97;;;-3.41;67.73
37694;BME280;23531;50.122;8.644;2022-12-18T10:02:19;102021.78;;;-3.26;67.97
37694;BME280;23531;50.122;8.644;2022-12-18T10:04:23;102022.41;;;-3.21;67.67
37694;BME280;23531;50.122;8.644;2022-12-18T10:06:26;102021.34;;;-3.68;66.29
37694;BME280;23531;50.122;8.644;2022-12-18T10:08:33;102029.59;;;-3.41;67.85
37694;BME280;23531;50.122;8.644;2022-12-18T10:10:38;102035.34;;;-3.34;67.72
37694;BME280;23531;50.122;8.644;2022-12-18T10:12:43;102030.91;;;-3.16;67.28
37694;BME280;23531;50.122;8.644;2022-12-18T10:14:50;102030.06;;;-3.17;67.14
37694;BME280;23531;50.122;8.644;2022-12-18T10:16:55;102028.72;;;-3.08;67.68
37694;BME280;23531;50.122;8.644;2022-12-18T10:19:03;102031.66;;;-3.14;66.39
37694;BME280;23531;50.122;8.644;2022-12-18T10:21:12;102020.53;;;-3.04;66.73
37694;BME280;23531;50.122;8.644;2022-12-18T10:23:18;102014.53;;;-3.06;67.03
37694;BME280;23531;50.122;8.644;2022-12-18T10:25:22;102015.94;;;-3.32;67.58
37694;BME280;23531;50.122;8.644;2022-12-18T10:27:25;102005.78;;;-3.06;66.91
37694;BME280;23531;50.122;8.644;2022-12-18T10:29:27;101997.97;;;-2.92;66.64
37694;BME280;23531;50.122;8.644;2022-12-18T10:31:29;101993.72;;;-2.79;66.79
37694;BME280;23531;50.122;8.644;2022-12-18T10:33:31;101996.59;;;-2.68;66.30
37694;BME280;23531;50.122;8.644;2022-12-18T10:35:32;101998.06;;;-2.78;66.25
37694;BME280;23531;50.122;8.644;2022-12-18T10:37:35;101999.84;;;-2.63;65.65
37694;BME280;23531;50.122;8.644;2022-12-18T10:39:36;102006.97;;;-2.65;64.69
37694;BME280;23531;50.122;8.644;2022-12-18T10:41:37;102008.59;;;-2.78;65.51
37694;BME280;23531;50.122;8.644;2022-12-18T10:43:39;102015.97;;;-2.69;65.46